Time;durP1;ratioP1;P1;durP2;ratioP2;P2;SDS_P1;SDS_P2;PMS_P1;PMS_P2;Temp;Humidity;BMP_temperature;BMP_pressure;BME280_temperature;BME280_humidity;BME280_pressure;Samples;Min_cycle;Max_cycle;Signal;HPM_P1;HPM_P2
2023/02/21 02:14:23;;;;;;;7.40;1.97;;;;;;;6.57;100.00;100529.25;7396542;19;20794;-46
2023/02/21 02:17:10;;;;;;;4.77;1.43;;;;;;;6.56;100.00;100528.38;7392843;19;20480;-48
2023/02/21 02:20:08;;;;;;;3.17;1.57;;;;;;;6.57;100.00;100532.69;7397473;19;20418;-46
2023/02/21 02:22:52;;;;;;;8.83;2.40;;;;;;;6.58;100.00;100533.59;7391679;19;20445;-46
2023/02/21 02:25:34;;;;;;;3.90;1.63;;;;;;;6.56;100.00;100515.56;7396496;19;20410;-46
2023/02/21 02:28:36;;;;;;;4.33;2.03;;;;;;;6.56;100.00;100507.84;7392835;19;20783;-46
2023/02/21 02:31:38;;;;;;;8.10;1.93;;;;;;;6.55;100.00;100508.66;7393939;19;20417;-51
2023/02/21 02:34:31;;;;;;;4.77;2.10;;;;;;;6.56;100.00;100527.50;7396415;19;20448;-48
2023/02/21 02:37:10;;;;;;;4.97;1.70;;;;;;;6.54;100.00;100517.16;7393065;19;20453;-46
2023/02/21 02:39:43;;;;;;;3.50;1.70;;;;;;;6.54;100.00;100523.94;7396992;19;21050;-45
2023/02/21 02:42:20;;;;;;;4.50;2.13;;;;;;;6.55;100.00;100528.28;7392970;19;20991;-46
2023/02/21 02:44:53;;;;;;;5.57;2.40;;;;;;;6.52;100.00;100530.69;7394153;19;20493;-45
2023/02/21 02:47:25;;;;;;;5.70;2.00;;;;;;;6.51;100.00;100537.47;7392883;19;20788;-47
2023/02/21 02:49:56;;;;;;;3.70;1.87;;;;;;;6.51;100.00;100540.03;7397429;19;20402;-46
2023/02/21 02:52:28;;;;;;;3.47;2.13;;;;;;;6.51;100.00;100542.59;7389836;19;20442;-48
2023/02/21 02:55:01;;;;;;;4.30;2.17;;;;;;;6.50;100.00;100552.81;7396852;19;20415;-47
2023/02/21 02:57:37;;;;;;;5.47;2.80;;;;;;;6.49;100.00;100546.78;7390686;19;20442;-46
2023/02/21 03:00:09;;;;;;;7.57;3.40;;;;;;;6.44;100.00;100537.94;7396444;19;20405;-46
2023/02/21 03:02:54;;;;;;;5.77;3.57;;;;;;;6.41;100.00;100535.22;7389838;19;20461;-46
2023/02/21 03:05:41;;;;;;;7.60;3.60;;;;;;;6.39;100.00;100541.94;7395379;19;20402;-46
2023/02/21 03:08:18;;;;;;;5.60;3.43;;;;;;;6.38;100.00;100546.19;7389534;19;20451;-46
2023/02/21 03:10:53;;;;;;;6.80;3.83;;;;;;;6.35;100.00;100541.78;7396573;19;20404;-46
2023/02/21 03:13:25;;;;;;;7.70;2.90;;;;;;;6.29;100.00;100546.56;7387892;19;20448;-46
2023/02/21 03:15:59;;;;;;;6.20;3.13;;;;;;;6.26;100.00;100548.06;7396636;19;20406;-47
2023/02/21 03:18:32;;;;;;;4.90;2.63;;;;;;;6.24;100.00;100545.41;7395384;19;20458;-46
2023/02/21 03:21:03;;;;;;;6.30;2.73;;;;;;;6.18;100.00;100555.31;7396200;19;20430;-45
2023/02/21 03:23:36;;;;;;;4.40;2.30;;;;;;;6.16;100.00;100557.78;7392926;19;20517;-46
2023/02/21 03:26:08;;;;;;;9.87;3.30;;;;;;;6.15;100.00;100566.28;7393076;19;20416;-46
2023/02/21 03:28:38;;;;;;;5.60;3.50;;;;;;;6.12;100.00;100566.13;7394237;19;20405;-48
2023/02/21 03:31:09;;;;;;;9.57;4.20;;;;;;;6.15;100.00;100562.84;7391737;19;20502;-47
2023/02/21 03:33:40;;;;;;;8.83;4.40;;;;;;;6.15;100.00;100567.97;7393559;19;20457;-45
2023/02/21 03:36:10;;;;;;;8.90;4.30;;;;;;;6.14;100.00;100563.63;7393415;19;20411;-46
2023/02/21 03:38:42;;;;;;;7.27;4.10;;;;;;;6.10;100.00;100567.69;7394548;19;20401;-46
2023/02/21 03:41:13;;;;;;;13.90;4.27;;;;;;;6.07;100.00;100567.53;7391960;19;20408;-48
2023/02/21 03:43:42;;;;;;;7.97;3.90;;;;;;;6.06;100.00;100569.19;7393588;19;20442;-46
2023/02/21 03:46:12;;;;;;;6.73;3.00;;;;;;;6.00;100.00;100568.81;7393257;19;20418;-47
2023/02/21 03:48:42;;;;;;;6.90;2.60;;;;;;;5.93;100.00;100579.50;7394414;19;20404;-46
2023/02/21 03:51:11;;;;;;;6.43;3.10;;;;;;;5.92;100.00;100593.09;7392223;19;20427;-46
2023/02/21 03:53:43;;;;;;;9.23;2.87;;;;;;;5.93;100.00;100595.75;7392982;19;20459;-47
2023/02/21 03:56:13;;;;;;;12.40;3.23;;;;;;;5.93;100.00;100594.88;7390263;19;20417;-45
2023/02/21 03:58:42;;;;;;;11.83;3.83;;;;;;;5.91;100.00;100599.03;7394335;19;20466;-46
2023/02/21 04:01:12;;;;;;;9.70;3.87;;;;;;;5.92;100.00;100605.91;7392100;19;20415;-47
2023/02/21 04:03:42;;;;;;;17.53;4.60;;;;;;;5.92;100.00;100603.34;7388317;19;20444;-47
2023/02/21 04:06:11;;;;;;;11.90;4.73;;;;;;;5.92;100.00;100613.59;7392490;19;20406;-46
2023/02/21 04:08:43;;;;;;;13.27;5.33;;;;;;;5.93;100.00;100613.69;7393778;19;20392;-48
2023/02/21 04:11:13;;;;;;;15.90;5.93;;;;;;;5.93;100.00;100610.22;7393899;19;20404;-46
2023/02/21 04:13:43;;;;;;;12.57;5.80;;;;;;;5.93;100.00;100611.13;7392676;19;20430;-47
2023/02/21 04:16:12;;;;;;;16.60;5.47;;;;;;;5.90;100.00;100663.84;7390938;19;20747;-48
2023/02/21 04:18:42;;;;;;;12.10;3.20;;;;;;;5.86;100.00;100618.34;7393171;19;20758;-46
2023/02/21 04:21:11;;;;;;;13.33;3.70;;;;;;;5.84;100.00;100625.06;7390853;19;20407;-46
2023/02/21 04:23:43;;;;;;;9.07;3.63;;;;;;;5.80;100.00;100609.50;7392611;19;20770;-43
2023/02/21 04:26:13;;;;;;;6.50;3.63;;;;;;;5.81;100.00;100608.72;7390814;19;20403;-47
2023/02/21 04:28:42;;;;;;;10.83;3.80;;;;;;;5.82;100.00;100622.41;7393390;19;20405;-47
2023/02/21 04:31:12;;;;;;;10.77;3.93;;;;;;;5.83;100.00;100677.09;7390350;19;20413;-46
2023/02/21 04:33:42;;;;;;;9.00;4.50;;;;;;;5.82;100.00;100648.03;7392352;19;20956;-49
2023/02/21 04:36:12;;;;;;;11.77;4.40;;;;;;;5.79;100.00;100661.53;7391007;19;20408;-46
2023/02/21 04:38:44;;;;;;;11.57;4.57;;;;;;;5.80;100.00;100654.75;7392566;19;20399;-48
2023/02/21 04:41:13;;;;;;;11.27;5.10;;;;;;;5.80;100.00;100675.22;7391244;19;20414;-45
2023/02/21 04:43:44;;;;;;;16.63;5.53;;;;;;;5.77;100.00;100665.69;7390924;19;20440;-46
2023/02/21 04:46:14;;;;;;;15.80;4.27;;;;;;;5.74;100.00;100664.63;7392944;19;20397;-48
2023/02/21 04:48:44;;;;;;;9.40;4.27;;;;;;;5.71;100.00;100659.28;7392884;19;20423;-48
2023/02/21 04:51:14;;;;;;;14.43;4.60;;;;;;;5.66;100.00;100659.88;7391023;19;20826;-46
2023/02/21 04:53:48;;;;;;;21.23;3.87;;;;;;;5.63;100.00;100651.16;7391653;19;20963;-46
2023/02/21 04:56:20;;;;;;;14.90;4.07;;;;;;;5.58;100.00;100652.56;7390858;19;20419;-49
2023/02/21 04:58:50;;;;;;;12.57;3.60;;;;;;;5.53;100.00;100632.69;7393972;19;20450;-48
2023/02/21 05:01:20;;;;;;;17.77;3.60;;;;;;;5.49;100.00;100627.31;7390714;19;20429;-43
2023/02/21 05:03:50;;;;;;;20.77;4.30;;;;;;;5.47;100.00;100632.31;7391055;19;20435;-46
2023/02/21 05:06:20;;;;;;;18.63;3.30;;;;;;;5.43;100.00;100627.78;7389605;19;20852;-46
2023/02/21 05:08:53;;;;;;;12.77;3.17;;;;;;;5.43;100.00;100629.50;7398489;19;20415;-46
2023/02/21 05:11:23;;;;;;;17.60;3.70;;;;;;;5.38;100.00;100624.06;7395516;19;20995;-45
2023/02/21 05:13:53;;;;;;;22.33;4.20;;;;;;;5.37;100.00;100628.31;7398721;19;20458;-45
2023/02/21 05:16:22;;;;;;;14.50;3.73;;;;;;;5.36;100.00;100624.00;7396401;19;20427;-46
2023/02/21 05:18:52;;;;;;;13.70;3.00;;;;;;;5.34;100.00;100624.69;7400330;19;20409;-46
2023/02/21 05:21:22;;;;;;;19.63;3.60;;;;;;;5.35;100.00;100634.13;7394826;19;20397;-46
2023/02/21 05:23:59;;;;;;;18.00;4.33;;;;;;;5.32;100.00;100624.59;7397694;19;20447;-46
2023/02/21 05:26:31;;;;;;;19.90;3.53;;;;;;;5.33;100.00;100635.72;7394759;19;20400;-46
2023/02/21 05:29:01;;;;;;;17.07;2.60;;;;;;;5.34;100.00;100637.50;7399955;19;20404;-46
2023/02/21 05:31:31;;;;;;;26.77;3.23;;;;;;;5.33;100.00;100625.50;7394782;19;20405;-45
2023/02/21 05:34:00;;;;;;;16.50;3.10;;;;;;;5.31;100.00;100635.63;7398141;19;20517;-45
2023/02/21 05:36:30;;;;;;;17.90;4.60;;;;;;;5.31;100.00;100635.63;7395607;19;20971;-47
2023/02/21 05:39:02;;;;;;;13.97;2.67;;;;;;;5.30;100.00;100623.63;7399234;19;20414;-46
2023/02/21 05:41:32;;;;;;;19.53;3.43;;;;;;;5.30;100.00;100630.41;7394749;19;20518;-46
2023/02/21 05:44:02;;;;;;;23.70;3.50;;;;;;;5.31;100.00;100632.16;7396986;19;20462;-46
2023/02/21 05:46:34;;;;;;;18.40;3.40;;;;;;;5.31;100.00;100627.94;7394434;19;20417;-45
2023/02/21 05:49:04;;;;;;;29.27;4.20;;;;;;;5.30;100.00;100638.97;7399234;19;20412;-46
2023/02/21 05:51:36;;;;;;;17.50;2.30;;;;;;;5.32;100.00;100644.19;7393861;19;20939;-45
2023/02/21 05:54:10;;;;;;;18.60;3.50;;;;;;;5.33;100.00;100640.84;7397820;19;20789;-46
2023/02/21 05:56:40;;;;;;;23.93;3.13;;;;;;;5.35;100.00;100662.28;7393630;19;20451;-46
2023/02/21 05:59:10;;;;;;;23.60;3.00;;;;;;;5.33;100.00;100651.94;7398981;19;20409;-46
2023/02/21 06:01:40;;;;;;;25.63;3.10;;;;;;;5.32;100.00;100654.44;7395221;19;20413;-45
2023/02/21 06:04:10;;;;;;;17.80;3.73;;;;;;;5.33;100.00;100653.63;7395576;19;20434;-47
2023/02/21 06:06:40;;;;;;;16.77;4.07;;;;;;;5.34;100.00;100663.06;7393605;19;20415;-47
2023/02/21 06:09:12;;;;;;;25.70;3.80;;;;;;;5.32;100.00;100654.44;7398600;19;20407;-46
2023/02/21 06:11:41;;;;;;;25.60;2.97;;;;;;;5.28;100.00;100663.56;7392942;19;20391;-46
2023/02/21 06:14:16;;;;;;;37.83;5.00;;;;;;;5.25;100.00;100655.72;7396698;19;20437;-46
2023/02/21 06:16:46;;;;;;;19.70;3.13;;;;;;;5.24;100.00;100662.50;7388440;19;20406;-49
2023/02/21 06:19:17;;;;;;;28.60;4.80;;;;;;;5.24;100.00;100670.16;7397697;19;20402;-46
2023/02/21 06:21:47;;;;;;;24.40;3.50;;;;;;;5.19;100.00;100669.03;7392557;19;20518;-46
2023/02/21 06:24:19;;;;;;;20.30;3.40;;;;;;;5.19;100.00;100668.13;7396728;19;20467;-46
2023/02/21 06:26:48;;;;;;;14.93;3.07;;;;;;;5.16;100.00;100671.38;7392722;19;20431;-45
2023/02/21 06:29:18;;;;;;;21.80;4.20;;;;;;;5.16;100.00;100666.25;7398237;19;20414;-46
2023/02/21 06:31:48;;;;;;;24.93;3.93;;;;;;;5.13;100.00;100664.38;7393442;19;20420;-46
2023/02/21 06:34:17;;;;;;;24.53;3.47;;;;;;;5.14;100.00;100668.72;7396243;19;20964;-46
2023/02/21 06:36:47;;;;;;;14.37;3.90;;;;;;;5.14;100.00;100672.97;7393406;19;20438;-45
2023/02/21 06:39:19;;;;;;;24.47;4.30;;;;;;;5.10;100.00;100674.44;7398062;19;20413;-46
2023/02/21 06:41:48;;;;;;;28.07;3.93;;;;;;;5.10;100.00;100678.66;7393077;19;20439;-46
2023/02/21 06:44:18;;;;;;;23.50;3.80;;;;;;;5.07;100.00;100678.50;7396221;19;20452;-46
2023/02/21 06:46:49;;;;;;;18.97;4.90;;;;;;;5.06;100.00;100677.59;7394420;19;20419;-46
2023/02/21 06:49:18;;;;;;;25.40;4.67;;;;;;;5.06;100.00;100680.16;7397127;19;20400;-46
2023/02/21 06:51:48;;;;;;;19.23;3.33;;;;;;;5.08;100.00;100680.25;7391370;19;20437;-44
2023/02/21 06:54:20;;;;;;;20.47;3.40;;;;;;;5.07;100.00;100688.72;7395777;19;20427;-45
2023/02/21 06:56:50;;;;;;;17.90;3.87;;;;;;;5.09;100.00;100687.13;7392293;19;20415;-46
2023/02/21 06:59:19;;;;;;;32.43;4.97;;;;;;;5.12;100.00;100692.41;7397077;19;20738;-46
2023/02/21 07:01:49;;;;;;;19.60;4.00;;;;;;;5.07;100.00;100693.84;7390148;19;20406;-45
2023/02/21 07:04:18;;;;;;;25.73;6.13;;;;;;;5.10;100.00;100686.34;7395472;19;20431;-46
2023/02/21 07:06:48;;;;;;;22.57;4.50;;;;;;;5.22;100.00;100694.78;7392446;19;20765;-46
2023/02/21 07:09:20;;;;;;;31.07;4.00;;;;;;;5.27;100.00;100695.97;7396998;19;20929;-47
2023/02/21 07:11:50;;;;;;;22.10;3.80;;;;;;;5.22;100.00;100697.34;7391677;19;20413;-44
2023/02/21 07:14:19;;;;;;;21.87;4.60;;;;;;;5.22;100.00;100705.00;7393133;19;20424;-47
2023/02/21 07:16:49;;;;;;;21.63;3.70;;;;;;;5.26;100.00;100706.97;7389917;19;20421;-45
2023/02/21 07:19:19;;;;;;;26.57;4.03;;;;;;;5.29;100.00;100702.84;7393794;19;20404;-45
2023/02/21 07:21:48;;;;;;;24.17;3.63;;;;;;;5.27;100.00;100700.16;7391352;19;20423;-46
2023/02/21 07:24:20;;;;;;;24.80;5.57;;;;;;;5.31;100.00;100698.69;7394503;19;20452;-46
2023/02/21 07:26:50;;;;;;;18.70;3.07;;;;;;;5.30;100.00;100702.94;7390250;19;20416;-46
2023/02/21 07:29:19;;;;;;;16.07;3.27;;;;;;;5.32;100.00;100692.81;7395429;19;20764;-47
2023/02/21 07:31:49;;;;;;;41.80;10.00;;;;;;;5.36;100.00;100702.41;7387880;19;20413;-45
2023/02/21 07:34:18;;;;;;;21.17;4.23;;;;;;;5.38;100.00;100699.16;7393971;19;20508;-45
2023/02/21 07:36:48;;;;;;;31.67;4.47;;;;;;;5.43;100.00;100699.44;7390315;19;20415;-46
2023/02/21 07:39:17;;;;;;;21.27;4.77;;;;;;;5.40;100.00;100699.28;7395284;19;21044;-46
2023/02/21 07:41:49;;;;;;;20.13;4.17;;;;;;;5.44;100.00;100705.47;7389919;19;20785;-46
2023/02/21 07:44:19;;;;;;;28.40;4.40;;;;;;;5.41;100.00;100713.84;7393969;19;20974;-44
2023/02/21 07:46:48;;;;;;;26.20;3.50;;;;;;;5.40;100.00;100705.25;7388049;19;20416;-46
2023/02/21 07:49:18;;;;;;;34.17;4.23;;;;;;;5.40;100.00;100709.50;7394473;19;20431;-46
2023/02/21 07:51:47;;;;;;;23.87;4.17;;;;;;;5.39;100.00;100711.16;7389373;19;20452;-47
2023/02/21 07:54:17;;;;;;;31.33;5.80;;;;;;;5.43;100.00;100717.38;7393711;19;20983;-44
2023/02/21 07:56:51;;;;;;;38.27;6.23;;;;;;;5.45;100.00;100707.22;7388153;19;20419;-47
2023/02/21 07:59:20;;;;;;;21.37;3.40;;;;;;;5.53;100.00;100706.91;7391676;19;20401;-46
2023/02/21 08:01:50;;;;;;;36.80;6.57;;;;;;;5.54;100.00;100695.88;7387998;19;20422;-46
2023/02/21 08:04:20;;;;;;;76.43;19.43;;;;;;;5.63;100.00;100693.00;7392936;19;20507;-45
2023/02/21 08:06:50;;;;;;;33.40;6.47;;;;;;;5.72;100.00;100687.56;7389049;19;20931;-47
2023/02/21 08:09:21;;;;;;;34.83;6.80;;;;;;;5.72;100.00;100687.56;7393858;19;20410;-46
2023/02/21 08:11:53;;;;;;;205.57;42.43;;;;;;;5.78;100.00;100689.59;7386320;19;20402;-45
2023/02/21 08:14:22;;;;;;;28.70;5.47;;;;;;;5.81;100.00;100682.97;7391172;19;20434;-46
2023/02/21 08:16:52;;;;;;;35.10;7.13;;;;;;;5.81;100.00;100692.34;7388414;19;20450;-48
2023/02/21 08:19:22;;;;;;;19.10;4.17;;;;;;;5.81;100.00;100682.09;7392583;19;20399;-45
2023/02/21 08:21:52;;;;;;;47.90;11.03;;;;;;;5.93;100.00;100681.94;7387830;19;20500;-44
2023/02/21 08:24:21;;;;;;;36.70;10.53;;;;;;;5.97;100.00;100668.53;7391123;19;20453;-45
2023/02/21 08:26:53;;;;;;;41.73;10.93;;;;;;;5.97;100.00;100680.44;7387528;19;20449;-46
2023/02/21 08:29:23;;;;;;;20.47;3.57;;;;;;;5.89;100.00;100664.66;7392924;19;20412;-45
2023/02/21 08:31:52;;;;;;;23.27;3.97;;;;;;;5.92;100.00;100663.16;7389250;19;20766;-46
2023/02/21 08:34:23;;;;;;;119.73;20.50;;;;;;;6.08;100.00;100621.41;7390942;19;20473;-43
2023/02/21 08:36:53;;;;;;;22.07;3.70;;;;;;;6.05;100.00;100612.69;7389583;19;20421;-45
2023/02/21 08:39:22;;;;;;;24.40;5.87;;;;;;;5.99;100.00;100610.59;7391932;19;20409;-45
2023/02/21 08:41:54;;;;;;;38.13;5.23;;;;;;;6.25;100.00;100587.31;7385835;19;20414;-46
2023/02/21 08:44:24;;;;;;;23.77;3.93;;;;;;;6.32;100.00;100576.59;7397119;19;20437;-46
2023/02/21 08:46:53;;;;;;;58.47;12.33;;;;;;;6.20;100.00;100570.00;7396022;19;20406;-45
2023/02/21 08:49:23;;;;;;;30.40;5.07;;;;;;;6.23;100.00;100553.91;7399545;19;20395;-45
2023/02/21 08:51:53;;;;;;;13.03;3.53;;;;;;;6.32;100.00;100545.84;7394277;19;20864;-45
2023/02/21 08:54:23;;;;;;;30.40;4.90;;;;;;;6.34;100.00;100546.81;7397133;19;20969;-45
2023/02/21 08:56:55;;;;;;;19.43;4.57;;;;;;;6.41;100.00;100551.47;7396350;19;20764;-45
2023/02/21 08:59:24;;;;;;;27.10;4.43;;;;;;;6.45;100.00;100558.53;7396334;19;20798;-45
2023/02/21 09:01:54;;;;;;;28.83;4.43;;;;;;;6.41;100.00;100558.31;7393987;19;20427;-45
2023/02/21 09:04:23;;;;;;;22.47;4.30;;;;;;;6.19;100.00;100569.88;7397123;19;20588;-44
2023/02/21 09:06:53;;;;;;;22.30;5.07;;;;;;;6.35;100.00;100558.81;7394514;19;20769;-45
2023/02/21 09:09:22;;;;;;;23.70;4.80;;;;;;;6.63;100.00;100570.63;7398830;19;20403;-48
2023/02/21 09:11:54;;;;;;;49.60;18.37;;;;;;;6.43;100.00;100578.09;7392486;19;20419;-45
2023/02/21 09:14:23;;;;;;;22.43;4.83;;;;;;;6.28;100.00;100582.34;7396560;19;20438;-45
2023/02/21 09:16:53;;;;;;;65.83;14.20;;;;;;;6.33;100.00;100584.38;7395328;19;20423;-46
2023/02/21 09:19:23;;;;;;;42.83;9.40;;;;;;;6.27;100.00;100596.84;7395795;19;20920;-45
2023/02/21 09:21:54;;;;;;;32.30;5.23;;;;;;;6.49;100.00;100603.16;7398588;19;20771;-45
2023/02/21 09:24:24;;;;;;;28.67;5.23;;;;;;;6.70;100.00;100633.34;7395712;19;20449;-45
2023/02/21 09:26:58;;;;;;;19.20;3.40;;;;;;;6.59;100.00;100633.66;7399414;19;20391;-45
2023/02/21 09:29:28;;;;;;;28.57;4.13;;;;;;;6.30;100.00;100668.75;7397682;19;20406;-45
2023/02/21 09:32:12;;;;;;;20.23;3.70;;;;;;;6.33;100.00;100691.13;7399038;19;20442;-45
2023/02/21 09:34:41;;;;;;;18.80;5.47;;;;;;;6.30;100.00;100708.91;7392736;19;20459;-47
2023/02/21 09:37:11;;;;;;;26.77;6.63;;;;;;;6.16;100.00;100742.25;7399266;19;20787;-46
2023/02/21 09:39:40;;;;;;;26.60;5.90;;;;;;;6.30;100.00;100770.41;7398437;19;20404;-45
2023/02/21 09:42:16;;;;;;;35.03;5.07;;;;;;;6.41;100.00;100799.22;7398386;19;20407;-45
2023/02/21 09:44:46;;;;;;;14.50;4.40;;;;;;;6.50;100.00;100835.63;7396274;19;20462;-44
2023/02/21 09:47:28;;;;;;;30.77;6.07;;;;;;;6.54;100.00;100873.50;7398732;19;20766;-45
2023/02/21 09:50:02;;;;;;;20.57;4.90;;;;;;;6.51;100.00;100913.44;7398143;19;20404;-44
2023/02/21 09:52:34;;;;;;;22.93;3.33;;;;;;;6.56;100.00;100946.25;7397387;19;20399;-43
2023/02/21 09:55:07;;;;;;;12.10;2.70;;;;;;;6.44;100.00;100996.75;7396410;19;20407;-46
2023/02/21 09:57:39;;;;;;;45.53;10.73;;;;;;;6.54;100.00;101052.06;7397282;19;20414;-45
2023/02/21 10:00:18;;;;;;;13.17;2.90;;;;;;;6.48;100.00;101103.84;7397978;19;20933;-45
2023/02/21 10:02:56;;;;;;;15.70;3.53;;;;;;;6.50;100.00;101152.66;7397012;19;20466;-46
2023/02/21 10:05:37;;;;;;;17.03;3.70;;;;;;;6.54;100.00;101186.25;7395957;19;20824;-44
2023/02/21 10:08:11;;;;;;;17.60;3.43;;;;;;;6.56;100.00;101205.19;7397563;19;20802;-45
2023/02/21 10:10:46;;;;;;;24.10;4.07;;;;;;;6.57;100.00;101230.03;7397040;19;20477;-45
2023/02/21 10:13:28;;;;;;;14.57;2.70;;;;;;;6.64;100.00;101241.59;7396779;19;20462;-44
2023/02/21 10:16:02;;;;;;;24.70;4.00;;;;;;;6.75;100.00;101253.44;7397521;19;20404;-45
2023/02/21 10:18:37;;;;;;;20.23;4.07;;;;;;;6.75;100.00;101267.94;7395232;19;20412;-46
2023/02/21 10:21:14;;;;;;;12.17;3.30;;;;;;;6.67;100.00;101285.38;7395456;19;20407;-43
2023/02/21 10:23:45;;;;;;;25.83;6.70;;;;;;;6.72;100.00;101295.97;7391644;19;20525;-47
2023/02/21 10:26:18;;;;;;;23.93;2.93;;;;;;;6.84;100.00;101314.72;7395800;19;20415;-45
2023/02/21 10:28:50;;;;;;;16.03;2.80;;;;;;;6.93;100.00;101313.53;7392316;19;20996;-45
2023/02/21 10:31:24;;;;;;;20.37;3.60;;;;;;;6.99;100.00;101319.94;7397159;19;20408;-43
2023/02/21 10:33:53;;;;;;;25.83;3.57;;;;;;;6.91;100.00;101340.78;7392047;19;20475;-45
2023/02/21 10:36:24;;;;;;;21.77;2.77;;;;;;;6.84;100.00;101350.63;7396203;19;20396;-45
2023/02/21 10:38:57;;;;;;;23.90;4.80;;;;;;;6.85;100.00;101351.50;7392290;19;20439;-45
2023/02/21 10:41:29;;;;;;;17.53;3.20;;;;;;;6.86;100.00;101351.63;7395464;19;20434;-44
2023/02/21 10:44:06;;;;;;;17.43;3.70;;;;;;;6.83;100.00;101356.53;7390267;19;20455;-45
2023/02/21 10:46:39;;;;;;;29.00;6.10;;;;;;;7.03;100.00;101362.13;7395036;19;20958;-47
2023/02/21 10:49:23;;;;;;;35.27;6.90;;;;;;;7.11;100.00;101368.63;7391661;19;20790;-45
2023/02/21 10:52:06;;;;;;;13.57;3.03;;;;;;;7.26;100.00;101360.16;7396392;19;20403;-45
2023/02/21 10:54:36;;;;;;;27.73;3.20;;;;;;;7.38;100.00;101366.06;7390129;19;21030;-45
2023/02/21 10:57:07;;;;;;;23.10;4.23;;;;;;;7.48;100.00;101353.84;7395687;19;20507;-45
2023/02/21 10:59:41;;;;;;;21.57;5.13;;;;;;;7.49;100.00;101368.47;7394759;19;20515;-44
2023/02/21 11:02:28;;;;;;;21.47;3.97;;;;;;;7.57;100.00;101372.41;7395996;19;20400;-44
2023/02/21 11:04:58;;;;;;;21.97;3.67;;;;;;;7.69;100.00;101362.91;7393895;19;20438;-45
2023/02/21 11:07:27;;;;;;;21.63;3.60;;;;;;;7.75;100.00;101366.66;7394804;19;20423;-45
2023/02/21 11:09:58;;;;;;;32.20;5.43;;;;;;;7.75;100.00;101362.38;7395953;19;20399;-46
2023/02/21 11:12:30;;;;;;;18.40;2.70;;;;;;;7.86;100.00;101360.50;7390935;19;20435;-45
2023/02/21 11:15:18;;;;;;;12.80;2.50;;;;;;;8.01;100.00;101352.88;7394315;19;20792;-45
2023/02/21 11:18:06;;;;;;;18.50;2.50;;;;;;;7.88;100.00;101364.06;7392143;19;20431;-45
2023/02/21 11:20:36;;;;;;;33.53;5.23;;;;;;;7.82;100.00;101368.81;7393513;19;20733;-45
2023/02/21 11:23:08;;;;;;;36.20;11.90;;;;;;;8.01;100.00;101367.41;7393792;19;20412;-45
2023/02/21 11:25:41;;;;;;;20.80;3.30;;;;;;;8.12;100.00;101353.53;7391279;19;20410;-46
2023/02/21 11:28:21;;;;;;;13.30;2.37;;;;;;;8.30;100.00;101352.88;7394884;19;20764;-44
2023/02/21 11:31:09;;;;;;;33.80;6.23;;;;;;;8.42;100.00;101360.44;7391816;19;20399;-45
2023/02/21 11:33:41;;;;;;;39.17;11.67;;;;;;;8.47;100.00;101362.47;7393741;19;20443;-45
2023/02/21 11:36:14;;;;;;;19.30;2.70;;;;;;;8.42;100.00;101366.47;7390155;19;20418;-45
2023/02/21 11:38:46;;;;;;;23.90;3.30;;;;;;;8.44;100.00;101357.16;7395298;19;20435;-45
2023/02/21 11:41:23;;;;;;;18.53;4.10;;;;;;;8.62;100.00;101356.53;7391918;19;20443;-45
2023/02/21 11:43:54;;;;;;;15.40;2.27;;;;;;;8.39;100.00;101366.28;7394319;19;21013;-44
2023/02/21 11:46:36;;;;;;;23.20;3.20;;;;;;;8.26;100.00;101366.34;7389741;19;21133;-45
2023/02/21 11:49:10;;;;;;;16.83;2.33;;;;;;;8.23;100.00;101355.06;7394744;19;20422;-45
2023/02/21 11:51:44;;;;;;;10.50;2.60;;;;;;;8.13;100.00;101347.59;7390039;19;20438;-45
2023/02/21 11:54:14;;;;;;;13.20;2.47;;;;;;;8.05;100.00;101349.69;7393413;19;20450;-43
2023/02/21 11:56:53;;;;;;;19.03;2.47;;;;;;;8.00;100.00;101363.91;7390275;19;20439;-45
2023/02/21 11:59:42;;;;;;;15.90;4.07;;;;;;;7.91;100.00;101354.00;7393993;19;20415;-45
2023/02/21 12:02:41;;;;;;;13.63;2.03;;;;;;;8.11;100.00;101342.34;7391393;19;21028;-47
2023/02/21 12:05:20;;;;;;;13.80;2.37;;;;;;;8.36;100.00;101337.81;7394535;19;20407;-45
2023/02/21 12:08:06;;;;;;;7.30;1.80;;;;;;;8.43;100.00;101334.81;7383988;19;20994;-45
2023/02/21 12:10:45;;;;;;;9.83;2.53;;;;;;;8.53;100.00;101348.25;7391674;19;20399;-44
2023/02/21 12:13:24;;;;;;;5.83;1.70;;;;;;;8.56;100.00;101362.16;7393879;19;20415;-45
2023/02/21 12:16:02;;;;;;;26.13;7.90;;;;;;;8.78;100.00;101359.19;7391709;19;20430;-44
2023/02/21 12:18:44;;;;;;;34.63;13.53;;;;;;;8.91;100.00;101359.91;7393104;19;20945;-45
2023/02/21 12:21:31;;;;;;;11.43;2.90;;;;;;;8.72;100.00;101366.53;7390731;19;21088;-46
2023/02/21 12:24:10;;;;;;;11.53;3.40;;;;;;;8.69;100.00;101355.19;7392870;19;20451;-45
2023/02/21 12:26:50;;;;;;;11.30;3.83;;;;;;;8.56;100.00;101369.88;7389262;19;20463;-45
2023/02/21 12:29:36;;;;;;;14.20;2.93;;;;;;;8.60;100.00;101352.94;7395003;19;20403;-45
2023/02/21 12:32:26;;;;;;;14.33;3.20;;;;;;;8.47;100.00;101353.88;7389547;19;20443;-44
2023/02/21 12:35:09;;;;;;;10.40;2.50;;;;;;;8.47;100.00;101349.63;7391751;19;20442;-45
2023/02/21 12:37:43;;;;;;;19.13;5.20;;;;;;;8.49;100.00;101355.75;7389024;19;20962;-43
2023/02/21 12:40:21;;;;;;;37.97;4.90;;;;;;;8.47;100.00;101331.59;7393734;19;20403;-45
2023/02/21 12:43:18;;;;;;;18.97;5.83;;;;;;;8.50;100.00;101330.91;7389906;19;20466;-44
2023/02/21 12:45:56;;;;;;;10.60;2.33;;;;;;;8.47;100.00;101331.59;7390631;19;20399;-44
2023/02/21 12:48:29;;;;;;;10.83;2.53;;;;;;;8.45;100.00;101311.75;7391763;19;20403;-46
2023/02/21 12:51:05;;;;;;;14.23;2.93;;;;;;;8.30;100.00;101311.75;7389661;19;20407;-45
2023/02/21 12:53:38;;;;;;;20.60;4.10;;;;;;;8.40;100.00;101292.59;7391569;19;20447;-45
2023/02/21 12:56:11;;;;;;;11.63;2.17;;;;;;;8.35;100.00;101292.31;7389004;19;20442;-45
2023/02/21 12:58:44;;;;;;;16.80;3.23;;;;;;;8.42;100.00;101291.00;7392365;19;20416;-45
2023/02/21 13:01:18;;;;;;;14.03;3.50;;;;;;;8.34;100.00;101290.53;7389784;19;20411;-45
2023/02/21 13:03:57;;;;;;;11.73;2.80;;;;;;;8.34;100.00;101282.81;7391855;19;20454;-45
2023/02/21 13:06:31;;;;;;;11.00;2.73;;;;;;;8.37;100.00;101283.03;7381412;19;20785;-44
2023/02/21 13:09:12;;;;;;;9.90;2.73;;;;;;;8.36;100.00;101283.81;7393226;19;20399;-46
2023/02/21 13:11:44;;;;;;;18.67;3.50;;;;;;;8.19;100.00;101281.13;7387965;19;20431;-45
2023/02/21 13:14:18;;;;;;;10.30;2.93;;;;;;;8.18;100.00;101261.38;7391443;19;20814;-46
2023/02/21 13:16:47;;;;;;;13.53;2.60;;;;;;;8.08;100.00;101269.31;7388977;19;20469;-45
2023/02/21 13:19:17;;;;;;;11.50;2.67;;;;;;;8.23;100.00;101262.53;7393107;19;20538;-45
2023/02/21 13:22:05;;;;;;;20.80;3.03;;;;;;;8.24;100.00;101261.72;7386957;19;20442;-45
2023/02/21 13:24:47;;;;;;;13.40;3.27;;;;;;;8.20;100.00;101254.63;7389934;19;20550;-45
2023/02/21 13:27:35;;;;;;;16.27;3.23;;;;;;;8.20;100.00;101254.63;7387735;19;20438;-45
2023/02/21 13:30:12;;;;;;;9.90;2.90;;;;;;;8.20;100.00;101267.47;7395212;19;20763;-44
2023/02/21 13:32:52;;;;;;;15.43;2.20;;;;;;;8.19;100.00;101277.66;7395711;19;20457;-43
2023/02/21 13:35:27;;;;;;;12.60;2.73;;;;;;;8.24;100.00;101272.00;7398604;19;20410;-45
2023/02/21 13:38:00;;;;;;;11.47;2.70;;;;;;;8.30;100.00;101284.31;7396721;19;20442;-46
2023/02/21 13:40:36;;;;;;;15.50;2.60;;;;;;;8.39;100.00;101281.41;7398576;19;20399;-43
2023/02/21 13:43:11;;;;;;;9.73;2.27;;;;;;;8.72;100.00;101273.06;7396599;19;20822;-45
2023/02/21 13:45:41;;;;;;;12.10;3.57;;;;;;;8.99;100.00;101273.75;7396110;19;20407;-44
2023/02/21 13:48:29;;;;;;;18.63;2.67;;;;;;;9.09;100.00;101287.13;7396543;19;20407;-45
2023/02/21 13:51:00;;;;;;;20.07;3.10;;;;;;;8.99;100.00;101298.59;7394957;19;21358;-45
2023/02/21 13:53:34;;;;;;;14.60;3.40;;;;;;;8.73;100.00;101298.84;7397234;19;20443;-45
2023/02/21 13:56:19;;;;;;;18.60;2.40;;;;;;;8.85;100.00;101300.34;7394848;19;20422;-45
2023/02/21 13:58:49;;;;;;;11.30;2.43;;;;;;;8.80;100.00;101294.06;7398626;19;20396;-46
2023/02/21 14:01:43;;;;;;;12.63;2.60;;;;;;;8.83;100.00;101289.09;7395090;19;20434;-44